Jarratt, Virginia
Current Conditions -  °F | °C
As of 3:15 PM on Friday 28 Nov 2014 (Local Time) from KEMV Reporting Station
Clear Clear  
Wind Chill: 37°   Ceiling: Unl
Heat Index: 41°   Visibility: 10mi
Dew Point: 19°   Wind: 6mph
Humidity: 42%   Direction: 250°WSW
Pressure: 30.3"   Gusts: NA
Location:  36.82°N, 77.47°W
Report Text: KEMV 282015Z AUTO 25005KT 10SM CLR 05/M07 A3030 RMK AO2
Loading
Personal Weather Stations






























Interactive Weather Map New forecast layout! Learn more

10-Day Weather Forecast

Advertisements
Track Severe Weather on mobile